Time;durP1;ratioP1;P1;durP2;ratioP2;P2;SDS_P1;SDS_P2;PMS_P1;PMS_P2;Temp;Humidity;BMP_temperature;BMP_pressure;BME280_temperature;BME280_humidity;BME280_pressure;Samples;Min_cycle;Max_cycle;Signal;HPM_P1;HPM_P2
2022/03/11 00:00:04;;;;;;;29.63;15.70;;;;;;;-2.51;64.86;101404.78;4940687;29;20058;-77
2022/03/11 00:02:30;;;;;;;29.73;17.00;;;;;;;-2.47;64.84;101406.63;4940797;29;20027;-77
2022/03/11 00:04:55;;;;;;;29.05;16.63;;;;;;;-2.48;64.50;101414.22;4939855;29;20148;-77
2022/03/11 00:07:21;;;;;;;29.42;15.57;;;;;;;-2.59;64.64;101401.09;4940804;29;20475;-77
2022/03/11 00:09:46;;;;;;;30.08;15.48;;;;;;;-2.49;64.74;101415.88;4940668;29;20501;-77
2022/03/11 00:12:11;;;;;;;30.85;16.70;;;;;;;-2.54;64.74;101414.88;4940555;29;20384;-77
2022/03/11 00:14:37;;;;;;;29.73;16.33;;;;;;;-2.55;65.11;101405.47;4940829;29;20035;-76
2022/03/11 00:17:03;;;;;;;31.83;16.58;;;;;;;-2.59;65.17;101401.09;4939160;29;20027;-77
2022/03/11 00:19:29;;;;;;;35.50;17.40;;;;;;;-2.56;64.75;101409.72;4939655;29;20468;-77
2022/03/11 00:21:55;;;;;;;30.55;17.27;;;;;;;-2.58;65.11;101400.25;4939580;29;20035;-77
2022/03/11 00:24:21;;;;;;;30.42;15.93;;;;;;;-2.61;65.29;101406.16;4939342;29;20031;-77
2022/03/11 00:26:47;;;;;;;33.95;16.88;;;;;;;-2.70;65.31;101379.44;4941040;29;20148;-76
2022/03/11 00:29:12;;;;;;;34.72;17.50;;;;;;;-2.67;65.22;101395.72;4940558;29;20028;-76
2022/03/11 00:31:37;;;;;;;30.42;15.52;;;;;;;-2.65;65.01;101401.75;4940676;29;20027;-77
2022/03/11 00:34:03;;;;;;;34.45;18.20;;;;;;;-2.63;65.32;101397.56;4940956;29;20039;-77
2022/03/11 00:36:28;;;;;;;28.63;15.60;;;;;;;-2.76;65.65;101383.50;4939475;29;20024;-76
2022/03/11 00:38:54;;;;;;;30.92;17.95;;;;;;;-2.68;65.91;101396.53;4940726;29;20031;-76
2022/03/11 00:41:19;;;;;;;31.13;16.75;;;;;;;-2.77;66.00;101386.03;4940390;29;20028;-77
2022/03/11 00:43:44;;;;;;;29.70;17.27;;;;;;;-2.72;65.68;101391.28;4957108;28;20542;-76
2022/03/11 00:46:10;;;;;;;35.03;19.60;;;;;;;-2.79;66.35;101385.09;4940830;29;20154;-77
2022/03/11 00:48:35;;;;;;;35.25;17.70;;;;;;;-2.87;66.61;101376.28;4941353;29;20400;-76
2022/03/11 00:51:01;;;;;;;44.85;20.92;;;;;;;-2.80;66.30;101391.88;4956795;29;20038;-77
2022/03/11 00:53:27;;;;;;;35.40;18.15;;;;;;;-2.95;66.75;101378.59;4957162;28;20047;-77
2022/03/11 00:55:54;;;;;;;36.22;18.25;;;;;;;-2.99;66.85;101376.75;4957196;29;20114;-77
2022/03/11 00:58:19;;;;;;;31.70;17.77;;;;;;;-2.86;67.45;101404.41;4957089;29;20043;-77
2022/03/11 01:00:45;;;;;;;28.60;15.63;;;;;;;-2.92;67.38;101398.22;4957181;28;20027;-77
2022/03/11 01:03:10;;;;;;;35.40;17.00;;;;;;;-2.99;67.25;101380.94;4956835;28;20438;-77
2022/03/11 01:05:35;;;;;;;34.45;17.50;;;;;;;-2.93;67.73;101399.91;4934640;29;20452;-77
2022/03/11 01:08:01;;;;;;;33.67;18.30;;;;;;;-3.07;68.07;101379.00;4918725;29;20071;-77
2022/03/11 01:10:27;;;;;;;35.55;18.55;;;;;;;-3.03;68.31;101392.75;4934343;29;20047;-77
2022/03/11 01:12:52;;;;;;;31.00;16.55;;;;;;;-3.00;68.00;101397.94;4918896;29;20027;-77
2022/03/11 01:15:18;;;;;;;33.00;18.50;;;;;;;-3.04;67.68;101391.84;4934437;29;20088;-77
2022/03/11 01:17:43;;;;;;;39.88;20.60;;;;;;;-2.99;68.17;101389.50;4934719;29;20484;-76
2022/03/11 01:20:11;;;;;;;29.08;17.67;;;;;;;-3.08;68.48;101384.91;4918513;29;20558;-77
2022/03/11 01:22:37;;;;;;;33.17;18.15;;;;;;;-3.07;68.78;101388.34;4934669;29;20035;-77
2022/03/11 01:25:04;;;;;;;34.63;18.77;;;;;;;-3.11;69.04;101382.25;4934467;29;20046;-77
2022/03/11 01:27:29;;;;;;;32.65;17.55;;;;;;;-3.15;68.88;101379.56;4934525;29;20032;-76
2022/03/11 01:29:55;;;;;;;30.90;19.00;;;;;;;-3.17;69.32;101386.25;4934578;29;20040;-78
2022/03/11 01:32:20;;;;;;;34.92;18.05;;;;;;;-3.16;69.49;101383.78;4934113;29;20058;-78
2022/03/11 01:34:46;;;;;;;32.83;19.77;;;;;;;-3.18;70.01;101377.75;4918494;29;20066;-78
2022/03/11 01:37:11;;;;;;;36.95;19.42;;;;;;;-3.21;69.91;101371.66;4934229;29;20039;-77
2022/03/11 01:39:36;;;;;;;41.25;21.50;;;;;;;-3.44;70.32;101337.72;4934480;29;20089;-78
2022/03/11 01:42:02;;;;;;;30.45;18.30;;;;;;;-3.31;70.35;101368.78;4934801;29;20039;-78
2022/03/11 01:44:28;;;;;;;38.00;20.15;;;;;;;-3.32;70.83;101373.84;4936702;29;20108;-78
2022/03/11 01:46:53;;;;;;;40.88;19.42;;;;;;;-3.34;70.86;101367.78;4935645;29;20034;-78
2022/03/11 01:49:19;;;;;;;45.10;20.50;;;;;;;-3.45;70.83;101346.16;4935363;29;20605;-78
2022/03/11 01:51:46;;;;;;;32.58;19.60;;;;;;;-3.36;71.06;101364.34;4935328;29;20122;-77
2022/03/11 01:54:12;;;;;;;37.35;19.48;;;;;;;-3.39;71.39;101362.53;4936602;29;20672;-78
2022/03/11 01:56:38;;;;;;;39.17;21.20;;;;;;;-3.46;71.79;101352.06;4936567;29;20027;-78
2022/03/11 01:59:05;;;;;;;38.15;19.60;;;;;;;-3.51;71.73;101344.25;4936411;29;20119;-78
2022/03/11 02:01:31;;;;;;;30.10;16.42;;;;;;;-3.52;71.86;101356.09;4936578;29;20040;-78
2022/03/11 02:03:59;;;;;;;36.90;20.23;;;;;;;-3.49;72.14;101373.19;4935029;29;20058;-78
2022/03/11 02:06:26;;;;;;;36.25;20.40;;;;;;;-3.50;72.53;101373.97;4936138;29;20035;-78
2022/03/11 02:08:53;;;;;;;36.13;19.13;;;;;;;-3.56;72.54;101361.91;4936250;29;20043;-78
2022/03/11 02:11:19;;;;;;;37.15;18.45;;;;;;;-3.54;72.35;101362.84;4936096;29;20043;-78
2022/03/11 02:13:49;;;;;;;37.45;20.80;;;;;;;-3.51;73.12;101382.44;4934818;29;20024;-78
2022/03/11 02:16:20;;;;;;;38.50;19.50;;;;;;;-3.64;72.64;101348.00;4933782;28;20030;-78
2022/03/11 02:18:46;;;;;;;37.78;21.15;;;;;;;-3.59;73.14;101373.63;4936096;29;20484;-78
2022/03/11 02:21:13;;;;;;;35.80;19.08;;;;;;;-3.59;72.80;101366.88;4934687;28;20038;-77
2022/03/11 02:23:45;;;;;;;36.17;20.77;;;;;;;-3.59;73.09;101360.91;4934782;29;20034;-77
2022/03/11 02:26:12;;;;;;;36.83;20.48;;;;;;;-3.60;72.77;101371.91;4935608;29;20039;-77
2022/03/11 02:28:38;;;;;;;34.38;18.30;;;;;;;-3.59;72.90;101364.31;4936028;29;20032;-77
2022/03/11 02:31:03;;;;;;;49.40;24.10;;;;;;;-3.58;73.02;101373.72;4934604;29;20043;-77
2022/03/11 02:33:29;;;;;;;37.72;21.77;;;;;;;-3.62;73.15;101363.38;4934434;29;20035;-77
2022/03/11 02:35:55;;;;;;;37.65;19.77;;;;;;;-3.66;73.14;101367.47;4934533;29;20028;-77
2022/03/11 02:38:20;;;;;;;34.75;19.02;;;;;;;-3.66;73.43;101364.91;4934180;29;20118;-77
2022/03/11 02:40:46;;;;;;;35.97;20.35;;;;;;;-3.84;73.41;101329.41;4935889;29;20032;-77
2022/03/11 02:43:12;;;;;;;31.15;17.98;;;;;;;-3.76;73.27;101347.53;4935510;29;20159;-77
2022/03/11 02:45:38;;;;;;;33.85;17.77;;;;;;;-3.76;73.04;101348.41;4935789;29;20090;-77
2022/03/11 02:48:04;;;;;;;32.88;18.27;;;;;;;-3.74;73.54;101358.66;4935653;29;20543;-77
2022/03/11 02:50:29;;;;;;;32.38;18.23;;;;;;;-3.74;73.45;101361.22;4933985;29;20027;-77
2022/03/11 02:52:55;;;;;;;37.03;20.23;;;;;;;-3.81;73.64;101360.09;4934215;29;20034;-77
2022/03/11 02:55:20;;;;;;;30.48;17.10;;;;;;;-3.81;73.60;101349.03;4935130;29;20035;-77
2022/03/11 02:57:45;;;;;;;34.38;18.92;;;;;;;-3.86;73.92;101348.00;4935891;29;20079;-77
2022/03/11 03:00:11;;;;;;;36.10;18.10;;;;;;;-3.83;74.00;101356.63;4935178;29;20580;-77
2022/03/11 03:02:37;;;;;;;34.40;18.50;;;;;;;-3.89;74.46;101345.31;4934086;29;20036;-77
2022/03/11 03:05:04;;;;;;;33.90;16.45;;;;;;;-3.87;73.76;101356.44;4933867;29;20034;-77
2022/03/11 03:07:30;;;;;;;31.95;17.52;;;;;;;-3.95;74.61;101334.91;4935013;29;20075;-77
2022/03/11 03:09:58;;;;;;;35.53;19.13;;;;;;;-3.88;74.33;101358.09;4934931;29;20054;-76
2022/03/11 03:12:26;;;;;;;31.50;17.35;;;;;;;-3.91;74.57;101354.59;4934983;29;20522;-77
2022/03/11 03:14:53;;;;;;;35.30;19.55;;;;;;;-3.87;74.81;101362.41;4935200;29;20087;-77
2022/03/11 03:17:19;;;;;;;33.88;18.42;;;;;;;-3.90;74.89;101354.63;4933592;29;20032;-77
2022/03/11 03:19:45;;;;;;;36.35;19.20;;;;;;;-3.92;75.41;101355.38;4934984;29;20032;-77
2022/03/11 03:22:11;;;;;;;40.15;19.60;;;;;;;-3.90;74.98;101361.41;4933449;29;20035;-77
2022/03/11 03:24:37;;;;;;;39.58;19.77;;;;;;;-3.89;75.08;101363.13;4935353;29;20499;-77
2022/03/11 03:27:02;;;;;;;35.42;19.45;;;;;;;-4.00;75.04;101339.84;4934972;29;20023;-77
2022/03/11 03:29:28;;;;;;;68.05;29.23;;;;;;;-3.94;75.33;101351.91;4933236;29;20552;-77
2022/03/11 03:31:57;;;;;;;37.50;18.80;;;;;;;-4.01;75.63;101345.69;4934966;29;20051;-77
2022/03/11 03:34:27;;;;;;;34.35;17.90;;;;;;;-3.96;75.14;101361.16;4934641;29;20034;-77
2022/03/11 03:36:52;;;;;;;37.13;19.60;;;;;;;-3.98;75.44;101357.69;4933416;29;20030;-77
2022/03/11 03:39:18;;;;;;;32.00;17.77;;;;;;;-4.08;75.34;101351.38;4934756;29;20028;-77
2022/03/11 03:41:43;;;;;;;35.53;18.63;;;;;;;-4.14;75.49;101333.31;4933608;29;20083;-77
2022/03/11 03:44:08;;;;;;;30.52;17.77;;;;;;;-4.10;75.66;101347.88;4933434;28;20024;-77
2022/03/11 03:46:34;;;;;;;32.30;17.88;;;;;;;-4.13;75.86;101347.75;4934508;29;20038;-77
2022/03/11 03:49:00;;;;;;;37.45;19.92;;;;;;;-4.12;75.80;101364.78;4933414;29;20028;-77
2022/03/11 03:51:25;;;;;;;37.83;19.30;;;;;;;-4.11;75.89;101357.22;4934319;29;20222;-77
2022/03/11 03:53:51;;;;;;;33.05;17.00;;;;;;;-4.14;75.89;101354.53;4934706;29;20024;-77
2022/03/11 03:56:16;;;;;;;28.58;17.27;;;;;;;-4.13;76.07;101352.84;4933285;29;20476;-77
2022/03/11 03:58:41;;;;;;;34.90;18.95;;;;;;;-4.23;75.87;101335.50;4951007;28;20130;-77
2022/03/11 04:01:07;;;;;;;35.67;19.33;;;;;;;-4.10;75.74;101356.38;4935249;29;20047;-77
2022/03/11 04:03:32;;;;;;;32.38;17.20;;;;;;;-4.24;75.98;101342.25;4950965;29;20071;-77
2022/03/11 04:05:58;;;;;;;32.83;19.48;;;;;;;-4.19;76.06;101355.16;4935103;29;20035;-77
2022/03/11 04:08:23;;;;;;;35.83;19.27;;;;;;;-4.25;76.62;101355.78;4935084;29;20032;-77
2022/03/11 04:10:49;;;;;;;38.90;19.92;;;;;;;-4.32;76.54;101347.03;4951198;29;20059;-77
2022/03/11 04:13:14;;;;;;;37.33;20.73;;;;;;;-4.33;76.82;101340.22;4951088;29;20035;-77
2022/03/11 04:15:39;;;;;;;39.45;21.27;;;;;;;-4.34;77.41;101347.75;4935053;29;20035;-77
2022/03/11 04:18:05;;;;;;;38.92;20.23;;;;;;;-4.22;77.30;101365.19;4935090;29;20066;-77
2022/03/11 04:20:30;;;;;;;39.90;21.30;;;;;;;-4.36;77.24;101346.84;4950908;29;20442;-77
2022/03/11 04:22:56;;;;;;;41.80;21.83;;;;;;;-4.38;77.15;101348.44;4951116;29;20085;-77
2022/03/11 04:25:21;;;;;;;36.20;19.15;;;;;;;-4.34;77.48;101375.75;4934974;29;20039;-77
2022/03/11 04:27:46;;;;;;;36.65;18.73;;;;;;;-4.29;76.10;101364.09;4935065;29;20506;-77
2022/03/11 04:30:12;;;;;;;34.78;18.52;;;;;;;-4.34;76.74;101368.13;4932680;29;20484;-77
2022/03/11 04:32:37;;;;;;;38.90;19.75;;;;;;;-4.38;76.89;101359.50;4932777;29;20035;-77
2022/03/11 04:35:04;;;;;;;33.85;18.42;;;;;;;-4.35;76.29;101381.63;4932974;29;20612;-77
2022/03/11 04:37:29;;;;;;;35.53;18.13;;;;;;;-4.41;76.17;101369.56;4932708;29;20036;-77
2022/03/11 04:39:54;;;;;;;32.97;18.10;;;;;;;-4.43;76.52;101366.06;4935329;29;20075;-77
2022/03/11 04:42:20;;;;;;;34.33;18.02;;;;;;;-4.45;76.32;101377.00;4936222;28;20094;-77
2022/03/11 04:44:45;;;;;;;31.67;17.23;;;;;;;-4.57;76.11;101346.81;4937893;29;20035;-77
2022/03/11 04:47:11;;;;;;;42.47;19.25;;;;;;;-4.53;76.68;101353.78;4936522;28;20027;-77
2022/03/11 04:49:36;;;;;;;56.63;28.20;;;;;;;-4.52;76.55;101361.47;4937503;29;20031;-77
2022/03/11 04:52:01;;;;;;;169.82;57.80;;;;;;;-4.55;76.46;101361.34;4937480;29;20444;-77
2022/03/11 04:54:27;;;;;;;77.63;26.23;;;;;;;-4.58;76.62;101358.69;4936042;29;20670;-77
2022/03/11 04:56:52;;;;;;;66.70;23.73;;;;;;;-4.59;77.01;101358.63;4937678;29;20031;-77
2022/03/11 04:59:18;;;;;;;35.63;17.02;;;;;;;-4.60;76.88;101369.56;4935900;29;20027;-77
2022/03/11 05:01:43;;;;;;;32.67;18.02;;;;;;;-4.58;76.20;101373.94;4936030;28;20083;-77
2022/03/11 05:04:08;;;;;;;36.20;18.88;;;;;;;-4.59;75.80;101366.25;4937236;29;20376;-77
2022/03/11 05:06:34;;;;;;;78.00;34.00;;;;;;;-4.63;76.00;101362.72;4937023;29;20035;-77
2022/03/11 05:08:59;;;;;;;294.10;101.55;;;;;;;-4.71;76.11;101348.81;4935997;29;20091;-77
2022/03/11 05:11:24;;;;;;;53.53;24.80;;;;;;;-4.61;75.82;101361.09;4935426;29;20054;-77
2022/03/11 05:13:50;;;;;;;46.03;22.45;;;;;;;-4.72;75.45;101341.09;4935897;28;20480;-77
2022/03/11 05:16:15;;;;;;;36.20;18.10;;;;;;;-4.72;75.31;101347.03;4937122;29;20107;-77
2022/03/11 05:18:40;;;;;;;32.88;17.77;;;;;;;-4.58;74.97;101375.59;4935535;29;20030;-77
2022/03/11 05:21:06;;;;;;;33.08;17.02;;;;;;;-4.67;74.65;101355.75;4935657;29;20103;-77
2022/03/11 05:23:32;;;;;;;32.20;17.17;;;;;;;-4.64;74.35;101363.50;4935488;29;20154;-77
2022/03/11 05:25:57;;;;;;;42.33;19.13;;;;;;;-4.62;74.11;101378.81;4937051;29;20031;-79
2022/03/11 05:28:22;;;;;;;32.78;16.85;;;;;;;-4.60;73.90;101379.75;4936698;29;20028;-77
2022/03/11 05:30:48;;;;;;;36.95;19.02;;;;;;;-4.69;74.08;101359.88;4937268;29;20120;-77
2022/03/11 05:33:13;;;;;;;54.38;25.50;;;;;;;-4.60;73.53;101378.06;4935732;29;20511;-77
2022/03/11 05:35:41;;;;;;;35.83;17.38;;;;;;;-4.59;73.91;101367.13;4936685;29;20082;-77
2022/03/11 05:38:06;;;;;;;33.95;17.77;;;;;;;-4.61;73.06;101358.53;4935767;29;20591;-78
2022/03/11 05:40:31;;;;;;;30.88;16.80;;;;;;;-4.57;72.46;101362.94;4937044;29;20118;-77
2022/03/11 05:42:57;;;;;;;32.05;16.83;;;;;;;-4.54;71.99;101368.16;4935554;29;20031;-77
2022/03/11 05:45:22;;;;;;;36.60;17.13;;;;;;;-4.41;71.79;101374.63;4936981;29;20039;-78
2022/03/11 05:47:47;;;;;;;34.40;16.83;;;;;;;-4.47;71.50;101359.09;4935443;29;20028;-77
2022/03/11 05:50:13;;;;;;;29.90;16.90;;;;;;;-4.31;70.09;101366.56;4936361;29;20034;-77
2022/03/11 05:52:40;;;;;;;34.90;17.90;;;;;;;-4.15;70.11;101374.84;4936379;29;20031;-77
2022/03/11 05:55:06;;;;;;;35.28;19.27;;;;;;;-3.97;69.82;101374.69;4935244;29;20138;-77
2022/03/11 05:57:32;;;;;;;35.50;18.58;;;;;;;-3.71;68.51;101380.81;4936496;29;20039;-77
2022/03/11 05:59:57;;;;;;;41.65;18.40;;;;;;;-3.53;66.97;101368.78;4936557;29;20036;-77
2022/03/11 06:02:23;;;;;;;26.63;17.00;;;;;;;-3.17;65.40;101370.97;4936215;29;20028;-76
2022/03/11 06:04:48;;;;;;;28.02;16.15;;;;;;;-2.78;64.78;101361.34;4934959;29;20122;-76
2022/03/11 06:07:14;;;;;;;30.30;16.30;;;;;;;-2.26;62.87;101369.06;4935305;28;20468;-77
2022/03/11 06:09:39;;;;;;;35.17;19.55;;;;;;;-1.95;60.34;101384.50;4935889;29;20039;-77
2022/03/11 06:12:05;;;;;;;30.77;15.88;;;;;;;-1.65;59.87;101385.44;4936120;29;20027;-76
2022/03/11 06:14:31;;;;;;;35.00;17.40;;;;;;;-1.45;57.69;101373.28;4934662;29;20515;-77
2022/03/11 06:16:56;;;;;;;26.38;14.93;;;;;;;-1.18;57.35;101372.34;4935946;29;20111;-76
2022/03/11 06:19:22;;;;;;;34.15;17.23;;;;;;;-1.03;56.64;101367.69;4935870;29;20361;-76
2022/03/11 06:21:47;;;;;;;28.38;17.35;;;;;;;-0.98;54.96;101370.34;4936267;29;20028;-76
2022/03/11 06:24:13;;;;;;;31.73;16.98;;;;;;;-0.71;54.46;101398.41;4936158;29;20031;-76
2022/03/11 06:26:39;;;;;;;24.95;14.63;;;;;;;-0.41;53.77;101383.84;4934639;28;20019;-78
2022/03/11 06:29:05;;;;;;;30.38;16.75;;;;;;;-0.26;52.01;101381.66;4935961;29;20035;-77
2022/03/11 06:31:30;;;;;;;28.58;15.55;;;;;;;0.04;51.49;101390.94;4935658;29;20559;-76
2022/03/11 06:33:57;;;;;;;25.17;13.77;;;;;;;0.04;51.54;101361.88;4935826;29;20032;-76
2022/03/11 06:36:23;;;;;;;27.85;16.40;;;;;;;0.31;50.34;101369.38;4935845;29;20024;-77
2022/03/11 06:38:49;;;;;;;26.52;15.13;;;;;;;0.75;50.30;101401.97;4934623;29;20027;-76
2022/03/11 06:41:14;;;;;;;26.08;14.60;;;;;;;0.93;48.38;101387.81;4934588;29;20492;-76
2022/03/11 06:43:39;;;;;;;27.08;14.75;;;;;;;1.04;48.15;101388.88;4966156;28;20046;-78
2022/03/11 06:46:05;;;;;;;28.55;15.15;;;;;;;1.15;48.63;101389.09;4935550;29;20491;-76
2022/03/11 06:48:31;;;;;;;31.10;16.05;;;;;;;1.71;48.73;101381.56;4933977;29;20036;-77
2022/03/11 06:50:57;;;;;;;25.77;14.35;;;;;;;2.29;45.98;101368.78;4935340;29;20035;-77
2022/03/11 06:53:26;;;;;;;33.22;16.67;;;;;;;2.03;45.13;101401.81;4934034;29;20031;-76
2022/03/11 06:55:53;;;;;;;30.05;15.82;;;;;;;1.69;45.79;101396.09;4934164;29;20031;-76
2022/03/11 06:58:18;;;;;;;23.48;13.00;;;;;;;2.35;45.59;101394.56;4934107;29;20086;-77
2022/03/11 07:00:44;;;;;;;26.42;14.45;;;;;;;3.06;43.75;101389.53;4935146;29;20028;-76
2022/03/11 07:03:09;;;;;;;26.88;15.32;;;;;;;2.91;43.86;101389.38;4934522;29;20047;-76
2022/03/11 07:05:34;;;;;;;30.50;14.63;;;;;;;3.15;43.36;101404.22;4935208;29;20059;-76
2022/03/11 07:08:00;;;;;;;21.73;14.45;;;;;;;3.60;41.22;101390.13;4934117;29;20492;-76
2022/03/11 07:10:25;;;;;;;27.17;13.93;;;;;;;3.50;41.00;101400.34;4935099;29;20056;-76
2022/03/11 07:12:51;;;;;;;19.83;13.02;;;;;;;3.35;41.24;101391.59;4935104;29;20028;-76
2022/03/11 07:15:16;;;;;;;24.55;14.25;;;;;;;3.06;41.24;101374.09;4935253;29;20032;-77
2022/03/11 07:17:42;;;;;;;26.52;14.07;;;;;;;3.17;40.97;101381.94;4934851;29;20024;-77
2022/03/11 07:20:08;;;;;;;21.02;13.60;;;;;;;2.91;41.13;101368.78;4935284;29;20249;-76
2022/03/11 07:22:34;;;;;;;25.05;13.43;;;;;;;4.50;40.98;101365.88;4934978;29;20488;-76
2022/03/11 07:25:00;;;;;;;22.65;12.98;;;;;;;6.71;36.72;101348.94;4935145;29;20039;-76
2022/03/11 07:27:26;;;;;;;24.33;13.48;;;;;;;6.57;32.63;101368.81;4934818;29;20028;-76
2022/03/11 07:29:51;;;;;;;22.73;12.82;;;;;;;5.54;34.36;101372.31;4933579;29;20127;-76
2022/03/11 07:32:17;;;;;;;27.17;14.35;;;;;;;4.63;34.92;101384.03;4934795;29;20083;-77
2022/03/11 07:34:43;;;;;;;25.13;14.30;;;;;;;4.63;35.29;101377.13;4934686;29;20543;-76
2022/03/11 07:37:12;;;;;;;23.85;14.32;;;;;;;4.31;35.66;101376.09;4935038;29;20027;-76
2022/03/11 07:39:39;;;;;;;22.63;13.38;;;;;;;4.12;36.51;101398.31;4933478;29;20036;-76
2022/03/11 07:42:04;;;;;;;23.77;13.60;;;;;;;3.85;36.94;101381.78;4934900;29;20050;-76
2022/03/11 07:44:29;;;;;;;19.25;12.40;;;;;;;4.12;37.28;101372.53;4934997;29;20086;-76
2022/03/11 07:46:55;;;;;;;26.00;13.90;;;;;;;4.09;37.20;101394.00;4934796;29;20024;-76
2022/03/11 07:49:22;;;;;;;23.10;13.45;;;;;;;3.82;37.32;101406.66;4935017;29;20078;-76
2022/03/11 07:51:47;;;;;;;26.95;14.35;;;;;;;3.54;37.34;101383.22;4933328;29;20032;-76
2022/03/11 07:54:13;;;;;;;23.92;14.80;;;;;;;3.09;38.06;101392.16;4933445;29;20075;-76
2022/03/11 07:56:38;;;;;;;25.52;15.95;;;;;;;2.93;38.30;101398.81;4934437;29;20032;-76
2022/03/11 07:59:05;;;;;;;24.27;14.23;;;;;;;2.65;39.28;101392.44;4934660;29;20456;-76
2022/03/11 08:01:31;;;;;;;22.40;14.48;;;;;;;2.67;39.20;101398.47;4934425;29;20391;-76
2022/03/11 08:03:57;;;;;;;21.95;12.00;;;;;;;2.70;39.17;101389.94;4934855;29;20036;-76
2022/03/11 08:06:22;;;;;;;25.15;15.90;;;;;;;2.68;38.88;101405.34;4934523;29;20102;-76
2022/03/11 08:08:47;;;;;;;28.45;15.40;;;;;;;2.35;38.74;101397.16;4934471;29;20027;-76
2022/03/11 08:11:15;;;;;;;27.08;16.70;;;;;;;2.35;38.90;101374.00;4933995;29;20294;-76
2022/03/11 08:13:42;;;;;;;41.88;26.83;;;;;;;2.25;38.28;101385.88;4933485;29;20479;-76
2022/03/11 08:16:07;;;;;;;23.38;13.48;;;;;;;2.11;38.34;101420.78;4938052;29;20086;-76
2022/03/11 08:18:33;;;;;;;25.55;12.10;;;;;;;1.60;38.19;101395.91;4937856;29;20507;-76
2022/03/11 08:20:59;;;;;;;19.67;11.15;;;;;;;1.50;39.11;101413.72;4938093;29;20066;-75
2022/03/11 08:23:24;;;;;;;20.48;12.30;;;;;;;1.43;39.96;101373.41;4935665;29;20106;-76
2022/03/11 08:25:50;;;;;;;18.83;11.48;;;;;;;1.60;39.70;101376.25;4936839;29;20040;-75
2022/03/11 08:28:16;;;;;;;18.52;10.48;;;;;;;1.71;38.81;101387.56;4938210;29;20032;-76
2022/03/11 08:30:43;;;;;;;17.67;10.25;;;;;;;1.78;38.56;101405.66;4936590;29;20063;-76
2022/03/11 08:33:10;;;;;;;28.48;10.60;;;;;;;1.69;38.39;101386.69;4938559;29;20035;-75
2022/03/11 08:35:36;;;;;;;16.83;10.48;;;;;;;1.73;38.44;101395.31;4936706;29;20063;-75
2022/03/11 08:38:04;;;;;;;21.58;11.40;;;;;;;1.70;38.34;101385.84;4937023;29;20074;-75
2022/03/11 08:40:30;;;;;;;22.52;14.50;;;;;;;1.81;38.62;101386.00;4936464;28;20031;-76
2022/03/11 08:42:55;;;;;;;16.23;10.40;;;;;;;1.87;38.39;101392.97;4937966;29;20024;-76
2022/03/11 08:45:22;;;;;;;41.60;21.35;;;;;;;1.78;38.85;101387.69;4937830;29;20472;-76
2022/03/11 08:47:52;;;;;;;81.05;53.67;;;;;;;1.71;37.80;101389.28;4937773;29;20387;-76
2022/03/11 08:50:18;;;;;;;18.17;11.25;;;;;;;1.75;38.16;101398.75;4937889;29;20032;-75
2022/03/11 08:52:44;;;;;;;16.77;9.60;;;;;;;1.60;37.27;101386.53;4937449;29;20522;-76
2022/03/11 08:55:11;;;;;;;17.35;9.35;;;;;;;1.56;37.74;101379.63;4937624;29;20480;-75
2022/03/11 08:57:37;;;;;;;18.52;9.50;;;;;;;1.65;38.10;101390.03;4937777;29;20031;-75
2022/03/11 09:00:09;;;;;;;23.63;11.02;;;;;;;1.50;37.11;101376.91;4936362;29;20028;-75
2022/03/11 09:02:37;;;;;;;16.00;9.55;;;;;;;1.58;37.48;101390.75;4935152;29;20395;-76
2022/03/11 09:05:07;;;;;;;15.15;9.18;;;;;;;1.60;37.56;101378.81;4933828;29;20168;-75
2022/03/11 09:07:32;;;;;;;15.18;9.70;;;;;;;1.74;37.35;101397.03;4934103;29;20487;-75
2022/03/11 09:09:59;;;;;;;14.73;8.65;;;;;;;1.59;36.68;101368.50;4933884;29;20039;-76
2022/03/11 09:12:25;;;;;;;13.63;7.90;;;;;;;1.59;36.96;101373.66;4933809;29;20035;-77
2022/03/11 09:14:50;;;;;;;16.77;9.93;;;;;;;1.66;37.23;101385.75;4917253;29;20914;-77
2022/03/11 09:17:15;;;;;;;18.38;8.98;;;;;;;1.69;36.86;101378.97;4934762;29;20361;-77
2022/03/11 09:19:43;;;;;;;15.15;8.85;;;;;;;1.70;37.52;101367.00;4918653;29;20040;-77
2022/03/11 09:22:09;;;;;;;14.75;9.20;;;;;;;1.81;37.50;101378.31;4934036;29;20039;-77
2022/03/11 09:24:35;;;;;;;15.88;9.48;;;;;;;1.71;37.01;101363.59;4915377;29;20127;-77
2022/03/11 09:27:00;;;;;;;16.13;9.32;;;;;;;1.70;37.95;101361.88;4933660;29;20179;-77
2022/03/11 09:29:28;;;;;;;19.35;10.60;;;;;;;1.72;37.65;101366.16;4933493;29;20036;-76
2022/03/11 09:31:55;;;;;;;20.42;12.63;;;;;;;1.74;37.56;101379.91;4933903;29;20090;-76
2022/03/11 09:34:21;;;;;;;15.10;9.82;;;;;;;1.54;37.49;101368.44;4950496;28;20043;-76
2022/03/11 09:36:46;;;;;;;20.38;12.45;;;;;;;1.53;37.31;101364.13;4934665;29;20035;-76
2022/03/11 09:39:11;;;;;;;16.60;10.13;;;;;;;1.50;37.78;101369.22;4967604;28;20035;-76
2022/03/11 09:41:37;;;;;;;17.20;9.88;;;;;;;1.49;37.26;101376.06;4935876;29;20468;-77
2022/03/11 09:44:03;;;;;;;17.45;10.55;;;;;;;1.47;37.33;101395.69;4936899;29;20032;-76
2022/03/11 09:46:29;;;;;;;16.73;10.00;;;;;;;1.41;36.92;101392.16;4936699;29;20111;-76
2022/03/11 09:48:55;;;;;;;17.50;9.88;;;;;;;1.39;37.09;101388.69;4935059;29;20118;-77
2022/03/11 09:51:20;;;;;;;18.95;10.23;;;;;;;1.41;36.84;101387.88;4936664;29;20158;-77
2022/03/11 09:53:46;;;;;;;16.73;11.02;;;;;;;1.38;36.91;101380.13;4934869;29;20036;-77
2022/03/11 09:56:11;;;;;;;14.32;9.45;;;;;;;1.45;36.32;101381.97;4936442;29;20056;-78
2022/03/11 09:58:37;;;;;;;13.75;8.45;;;;;;;1.45;36.89;101368.28;4935517;29;20042;-77
2022/03/11 10:01:04;;;;;;;18.48;10.68;;;;;;;1.62;37.06;101389.97;4936076;29;20452;-76
2022/03/11 10:03:30;;;;;;;17.42;8.63;;;;;;;1.58;36.50;101380.50;4936581;29;20089;-76
2022/03/11 10:05:55;;;;;;;17.88;9.80;;;;;;;1.55;36.69;101385.56;4935837;29;20027;-77
2022/03/11 10:08:34;;;;;;;17.63;9.80;;;;;;;1.71;36.78;101389.28;4936416;29;20036;-77
2022/03/11 10:11:23;;;;;;;16.25;10.10;;;;;;;1.74;36.05;101363.66;4935982;29;20451;-76
2022/03/11 10:13:53;;;;;;;16.63;9.65;;;;;;;1.82;35.18;101399.75;4936363;29;20102;-77
2022/03/11 10:16:24;;;;;;;15.23;9.27;;;;;;;1.74;35.18;101372.22;4934902;29;20027;-76
2022/03/11 10:18:57;;;;;;;20.73;10.75;;;;;;;1.85;34.66;101395.50;4934636;29;20118;-76
2022/03/11 10:21:38;;;;;;;19.70;8.88;;;;;;;1.79;35.09;101374.84;4935013;29;20031;-76
2022/03/11 10:24:05;;;;;;;;;;;;;;;1.92;34.98;101381.91;4935249;29;20028;-76
2022/03/11 10:26:42;;;;;;;15.77;9.68;;;;;;;1.94;33.99;101381.97;4935999;29;19965;-76
2022/03/11 10:29:16;;;;;;;15.02;9.57;;;;;;;1.96;34.09;101375.13;4934741;29;20547;-76
2022/03/11 10:31:45;;;;;;;14.65;8.20;;;;;;;1.97;34.74;101380.28;4935602;29;20032;-77
2022/03/11 10:34:31;;;;;;;16.00;9.88;;;;;;;2.06;34.57;101378.72;4935075;29;20433;-76
2022/03/11 10:36:59;;;;;;;16.67;8.95;;;;;;;2.02;35.01;101349.53;4933400;29;20078;-77
2022/03/11 10:39:26;;;;;;;14.23;8.50;;;;;;;2.14;35.43;101357.41;4935477;29;20031;-77
2022/03/11 10:41:53;;;;;;;15.10;8.10;;;;;;;2.25;33.89;101362.75;4935373;29;20027;-77
2022/03/11 10:44:25;;;;;;;27.75;13.20;;;;;;;2.36;33.83;101374.06;4935373;29;20443;-76
2022/03/11 10:46:55;;;;;;;15.95;9.35;;;;;;;2.39;35.46;101378.34;4935349;29;20039;-77
2022/03/11 10:49:32;;;;;;;18.63;10.45;;;;;;;2.44;36.52;101356.13;4934257;29;20031;-77
2022/03/11 10:51:59;;;;;;;15.90;9.23;;;;;;;2.49;36.26;101357.94;4933944;28;20131;-77
2022/03/11 10:54:26;;;;;;;14.55;8.63;;;;;;;2.61;34.48;101364.09;4934039;29;20032;-77
2022/03/11 10:56:52;;;;;;;19.98;10.95;;;;;;;2.64;35.41;101353.84;4935401;29;20158;-77
2022/03/11 10:59:20;;;;;;;20.77;10.18;;;;;;;2.65;35.42;101361.56;4935243;29;20539;-76
2022/03/11 11:01:46;;;;;;;30.88;15.55;;;;;;;2.59;35.21;101333.19;4935202;29;20046;-76
2022/03/11 11:04:13;;;;;;;16.42;9.73;;;;;;;2.60;35.48;101341.78;4935598;29;20032;-77
2022/03/11 11:06:40;;;;;;;15.02;8.35;;;;;;;2.66;36.10;101347.03;4935476;29;20035;-77
2022/03/11 11:09:07;;;;;;;14.15;8.38;;;;;;;2.73;35.11;101353.94;4933809;29;20051;-77